Time;durP1;ratioP1;P1;durP2;ratioP2;P2;SDS_P1;SDS_P2;PMS_P1;PMS_P2;Temp;Humidity;BMP_temperature;BMP_pressure;BME280_temperature;BME280_humidity;BME280_pressure;Samples;Min_cycle;Max_cycle;Signal;HPM_P1;HPM_P2
2021/06/29 00:01:19;;;;;;;3.97;3.03;;;;;;;;;;5045135;28;20080;-73
2021/06/29 00:03:47;;;;;;;6.65;2.55;;;;;;;;;;5035727;28;20403;-72
2021/06/29 00:06:15;;;;;;;4.90;3.13;;;;;;;;;;5050939;28;20095;-72
2021/06/29 00:08:44;;;;;;;9.40;3.53;;;;;;;;;;5035257;28;20089;-70
2021/06/29 00:11:23;;;;;;;3.85;2.85;;;;;;;;;;5040661;28;20049;-69
2021/06/29 00:13:52;;;;;;;4.85;3.28;;;;;;;;;;5042529;28;20065;-70
2021/06/29 00:16:21;;;;;;;5.18;3.30;;;;;;;;;;5032115;28;20111;-72
2021/06/29 00:18:50;;;;;;;3.95;3.22;;;;;;;;;;5033082;28;20049;-69
2021/06/29 00:21:18;;;;;;;3.40;2.88;;;;;;;;;;5032464;28;20080;-73
2021/06/29 00:23:47;;;;;;;6.32;3.67;;;;;;;;;;5048489;28;20091;-72
2021/06/29 00:26:15;;;;;;;9.85;4.45;;;;;;;;;;5034855;28;20076;-70
2021/06/29 00:28:44;;;;;;;5.15;3.47;;;;;;;;;;5033004;28;20129;-72
2021/06/29 00:31:12;;;;;;;5.80;3.33;;;;;;;;;;5034758;28;20076;-69
2021/06/29 00:33:42;;;;;;;14.13;4.00;;;;;;;;;;5047340;28;20098;-69
2021/06/29 00:36:15;;;;;;;9.55;4.85;;;;;;;;;;5037580;28;20149;-69
2021/06/29 00:38:44;;;;;;;6.03;4.20;;;;;;;;;;5032310;28;20096;-68
2021/06/29 00:41:12;;;;;;;5.47;4.10;;;;;;;;;;5033315;28;20056;-67
2021/06/29 00:43:45;;;;;;;4.85;3.85;;;;;;;;;;5035811;28;20129;-67
2021/06/29 00:46:14;;;;;;;4.57;3.63;;;;;;;;;;5045277;28;20068;-71
2021/06/29 00:48:44;;;;;;;4.22;3.35;;;;;;;;;;5037104;28;20046;-67
2021/06/29 00:51:13;;;;;;;5.55;4.00;;;;;;;;;;5045788;28;20047;-67
2021/06/29 00:53:41;;;;;;;6.63;3.30;;;;;;;;;;5031571;28;20144;-67
2021/06/29 00:56:13;;;;;;;4.97;3.20;;;;;;;;;;5046972;28;20083;-69
2021/06/29 00:58:42;;;;;;;4.90;3.85;;;;;;;;;;5034094;28;20073;-68
2021/06/29 01:01:11;;;;;;;4.95;3.55;;;;;;;;;;5032109;28;20775;-68
2021/06/29 01:03:40;;;;;;;5.50;2.90;;;;;;;;;;5041169;23;20550;-95
2021/06/29 01:06:15;;;;;;;5.10;3.30;;;;;;;;;;5018120;28;20068;-95
2021/06/29 01:08:45;;;;;;;5.15;3.35;;;;;;;;;;5019979;28;20096;-95
2021/06/29 01:11:16;;;;;;;4.22;3.42;;;;;;;;;;5022532;28;20050;-94
2021/06/29 01:13:46;;;;;;;5.05;3.55;;;;;;;;;;5022049;28;20050;-94
2021/06/29 01:16:18;;;;;;;6.63;3.65;;;;;;;;;;5002935;28;20057;-94
2021/06/29 01:18:57;;;;;;;6.30;3.28;;;;;;;;;;5018976;28;20129;-94
2021/06/29 01:21:39;;;;;;;6.05;4.00;;;;;;;;;;5019009;28;20054;-94
2021/06/29 01:24:55;;;;;;;4.72;3.15;;;;;;;;;;5007227;28;20061;-93
2021/06/29 01:27:54;;;;;;;5.90;3.40;;;;;;;;;;5018396;28;20117;-94
2021/06/29 01:36:15;;;;;;;6.97;3.72;;;;;;;;;;4992791;28;20042;-92
2021/06/29 01:39:04;;;;;;;7.25;3.65;;;;;;;;;;4996299;28;20077;-92
2021/06/29 01:42:15;;;;;;;5.10;3.40;;;;;;;;;;4998789;28;20068;-92
2021/06/29 01:45:13;;;;;;;4.53;3.22;;;;;;;;;;4979069;28;20116;-93
2021/06/29 01:50:45;;;;;;;4.82;3.75;;;;;;;;;;5014062;28;20498;-92
2021/06/29 01:53:33;;;;;;;4.88;3.50;;;;;;;;;;5001951;28;20089;-93
2021/06/29 01:56:07;;;;;;;3.83;3.45;;;;;;;;;;5011434;28;20053;-93
2021/06/29 01:58:54;;;;;;;5.55;3.95;;;;;;;;;;5010921;28;20069;-93
2021/06/29 02:01:27;;;;;;;4.90;3.67;;;;;;;;;;4998816;28;20470;-92
2021/06/29 02:04:12;;;;;;;6.72;3.90;;;;;;;;;;4996338;28;20518;-92
2021/06/29 02:06:57;;;;;;;4.88;3.65;;;;;;;;;;5002764;28;20039;-93
2021/06/29 02:09:27;;;;;;;9.63;3.80;;;;;;;;;;4999195;28;20081;-93
2021/06/29 02:11:57;;;;;;;6.30;3.78;;;;;;;;;;4999228;28;20545;-93
2021/06/29 02:14:57;;;;;;;6.10;3.67;;;;;;;;;;4997448;28;20050;-93
2021/06/29 02:17:28;;;;;;;5.95;3.92;;;;;;;;;;5015572;28;20057;-93
2021/06/29 02:20:06;;;;;;;7.80;3.58;;;;;;;;;;4999430;28;20410;-93
2021/06/29 02:22:35;;;;;;;5.57;3.90;;;;;;;;;;4998878;28;20122;-93
2021/06/29 02:25:04;;;;;;;3.42;3.10;;;;;;;;;;5000960;28;20160;-92
2021/06/29 02:27:42;;;;;;;11.48;4.10;;;;;;;;;;5019239;28;20050;-93
2021/06/29 02:30:58;;;;;;;4.60;3.42;;;;;;;;;;5013304;28;20581;-93
2021/06/29 02:33:41;;;;;;;6.57;3.60;;;;;;;;;;5000643;28;20141;-92
2021/06/29 02:36:11;;;;;;;4.45;3.60;;;;;;;;;;4982878;28;20296;-92
2021/06/29 02:41:38;;;;;;;5.68;3.88;;;;;;;;;;5018856;28;20749;-93
2021/06/29 02:44:09;;;;;;;10.88;4.30;;;;;;;;;;5019433;28;20490;-93
2021/06/29 02:46:39;;;;;;;5.43;3.78;;;;;;;;;;5023803;28;20129;-93
2021/06/29 02:49:14;;;;;;;15.95;4.93;;;;;;;;;;5019048;28;20042;-93
2021/06/29 02:51:46;;;;;;;4.78;3.63;;;;;;;;;;5018101;28;20042;-93
2021/06/29 02:54:18;;;;;;;4.18;3.47;;;;;;;;;;5019158;28;20053;-94
2021/06/29 02:56:47;;;;;;;4.55;3.40;;;;;;;;;;5020184;28;20038;-93
2021/06/29 02:59:23;;;;;;;4.38;3.53;;;;;;;;;;5018521;28;20497;-93
2021/06/29 03:01:54;;;;;;;5.05;3.50;;;;;;;;;;5018332;28;20061;-93
2021/06/29 03:04:43;;;;;;;4.40;3.38;;;;;;;;;;5022454;28;20065;-94
2021/06/29 03:07:21;;;;;;;5.38;3.60;;;;;;;;;;5026005;28;20069;-92
2021/06/29 03:09:50;;;;;;;7.25;3.72;;;;;;;;;;5031981;28;20185;-92
2021/06/29 03:12:22;;;;;;;5.72;4.13;;;;;;;;;;5004109;28;20056;-93
2021/06/29 03:15:14;;;;;;;5.88;3.60;;;;;;;;;;5019255;28;20121;-93
2021/06/29 03:17:44;;;;;;;7.20;4.18;;;;;;;;;;5001000;28;20085;-92
2021/06/29 03:20:15;;;;;;;6.07;3.58;;;;;;;;;;5020076;28;20061;-93
2021/06/29 03:22:51;;;;;;;5.45;3.38;;;;;;;;;;5009121;28;20537;-93
2021/06/29 03:25:28;;;;;;;5.40;3.67;;;;;;;;;;4999746;28;20046;-93
2021/06/29 03:27:58;;;;;;;4.82;3.53;;;;;;;;;;4980940;28;20050;-93
2021/06/29 03:30:43;;;;;;;7.60;3.83;;;;;;;;;;5006577;28;20491;-92
2021/06/29 03:33:15;;;;;;;5.90;4.10;;;;;;;;;;5012604;28;20052;-93
2021/06/29 03:36:00;;;;;;;6.05;3.53;;;;;;;;;;5002571;28;20051;-93
2021/06/29 03:38:29;;;;;;;5.88;3.47;;;;;;;;;;5002449;28;20049;-93
2021/06/29 03:43:48;;;;;;;5.78;3.70;;;;;;;;;;5006670;28;20415;-92
2021/06/29 03:46:17;;;;;;;6.55;3.90;;;;;;;;;;5000828;28;20137;-93
2021/06/29 03:48:46;;;;;;;5.63;3.58;;;;;;;;;;4997088;28;20054;-93
2021/06/29 03:51:17;;;;;;;7.07;4.63;;;;;;;;;;5004882;28;20065;-93
2021/06/29 03:53:47;;;;;;;5.88;3.75;;;;;;;;;;5003524;28;20136;-93
2021/06/29 03:56:28;;;;;;;4.90;3.70;;;;;;;;;;5013268;28;20052;-93
2021/06/29 03:59:11;;;;;;;4.95;3.35;;;;;;;;;;5002090;28;20046;-92
2021/06/29 04:04:26;;;;;;;7.20;3.95;;;;;;;;;;5001352;28;20060;-92
2021/06/29 04:09:48;;;;;;;5.43;3.70;;;;;;;;;;5005081;28;20053;-93
2021/06/29 04:12:17;;;;;;;3.63;3.20;;;;;;;;;;5006185;28;20049;-93
2021/06/29 04:14:46;;;;;;;3.50;3.20;;;;;;;;;;5001512;28;20052;-93
2021/06/29 04:17:18;;;;;;;5.45;3.15;;;;;;;;;;4996560;28;20049;-93
2021/06/29 04:19:53;;;;;;;6.68;3.30;;;;;;;;;;5012650;28;20046;-93
2021/06/29 04:22:24;;;;;;;4.80;3.38;;;;;;;;;;5012602;28;20069;-93
2021/06/29 04:24:53;;;;;;;5.65;3.50;;;;;;;;;;4999219;28;20414;-94
2021/06/29 04:27:26;;;;;;;6.72;3.60;;;;;;;;;;4997160;28;20073;-94
2021/06/29 04:29:55;;;;;;;5.68;3.53;;;;;;;;;;5014734;28;20054;-95
2021/06/29 04:32:26;;;;;;;6.35;3.58;;;;;;;;;;4998740;28;20121;-94
2021/06/29 04:34:57;;;;;;;6.97;3.25;;;;;;;;;;4999604;28;20148;-94
2021/06/29 04:37:28;;;;;;;4.03;3.10;;;;;;;;;;5003055;28;20049;-94
2021/06/29 04:39:57;;;;;;;3.92;3.35;;;;;;;;;;5000266;28;20050;-94
2021/06/29 04:42:27;;;;;;;6.97;3.55;;;;;;;;;;5002115;28;20460;-94
2021/06/29 04:44:59;;;;;;;5.30;3.35;;;;;;;;;;5001798;28;20054;-93
2021/06/29 04:47:36;;;;;;;3.33;2.92;;;;;;;;;;5006915;28;20065;-90
2021/06/29 04:50:07;;;;;;;3.90;3.50;;;;;;;;;;5005527;28;20132;-93
2021/06/29 04:55:37;;;;;;;9.63;4.63;;;;;;;;;;4997900;28;20066;-94
2021/06/29 04:58:13;;;;;;;7.00;3.40;;;;;;;;;;5006964;28;20056;-93
2021/06/29 05:00:45;;;;;;;7.53;3.30;;;;;;;;;;5001244;28;20463;-94
2021/06/29 05:09:15;;;;;;;3.75;2.80;;;;;;;;;;5001727;28;20072;-93
2021/06/29 05:11:45;;;;;;;3.53;2.72;;;;;;;;;;5006790;28;20045;-93
2021/06/29 05:14:13;;;;;;;3.63;2.47;;;;;;;;;;5005537;28;20439;-93
2021/06/29 05:16:42;;;;;;;4.95;2.83;;;;;;;;;;5007970;28;20161;-94
2021/06/29 05:19:11;;;;;;;6.97;3.22;;;;;;;;;;5018199;28;20336;-94
2021/06/29 05:22:01;;;;;;;3.83;2.65;;;;;;;;;;5019621;28;20050;-94
2021/06/29 05:24:48;;;;;;;3.38;2.60;;;;;;;;;;4986623;28;20054;-94
2021/06/29 05:27:18;;;;;;;3.80;3.33;;;;;;;;;;5005594;28;20052;-94
2021/06/29 05:29:52;;;;;;;4.75;3.00;;;;;;;;;;5007653;28;20166;-94
2021/06/29 05:32:27;;;;;;;3.83;2.85;;;;;;;;;;5017526;28;20058;-93
2021/06/29 05:38:50;;;;;;;7.00;3.10;;;;;;;;;;4961180;28;20091;-93
2021/06/29 05:41:18;;;;;;;;;;;;;;;;;;4971771;28;20051;-94
2021/06/29 05:44:17;;;;;;;4.65;2.47;;;;;;;;;;4966673;28;19930;-92
2021/06/29 05:46:48;;;;;;;3.88;2.60;;;;;;;;;;4964569;28;20074;-92
2021/06/29 05:49:17;;;;;;;4.57;2.75;;;;;;;;;;4956276;28;20113;-89
2021/06/29 05:51:50;;;;;;;7.40;2.83;;;;;;;;;;4959307;28;20115;-92
2021/06/29 05:54:19;;;;;;;5.47;3.30;;;;;;;;;;4966867;28;20246;-91
2021/06/29 05:56:48;;;;;;;5.80;2.80;;;;;;;;;;4969783;28;20059;-91
2021/06/29 05:59:23;;;;;;;6.55;3.25;;;;;;;;;;4956072;28;20110;-91
2021/06/29 06:01:53;;;;;;;3.10;2.77;;;;;;;;;;4972195;28;20061;-92
2021/06/29 06:04:23;;;;;;;4.38;2.55;;;;;;;;;;4975240;28;20085;-92
2021/06/29 06:06:53;;;;;;;6.40;3.03;;;;;;;;;;4993998;28;20167;-89
2021/06/29 06:09:23;;;;;;;4.13;2.70;;;;;;;;;;5002259;28;20121;-91
2021/06/29 06:12:06;;;;;;;4.80;2.80;;;;;;;;;;5012607;28;20479;-91
2021/06/29 06:17:39;;;;;;;6.25;3.15;;;;;;;;;;4954553;28;20058;-90
2021/06/29 06:20:10;;;;;;;7.03;3.40;;;;;;;;;;4966580;28;20055;-90
2021/06/29 06:22:42;;;;;;;5.93;3.08;;;;;;;;;;4968621;28;20058;-91
2021/06/29 06:25:27;;;;;;;6.53;3.38;;;;;;;;;;4954954;28;20059;-91
2021/06/29 06:27:57;;;;;;;4.18;2.78;;;;;;;;;;4958337;28;20058;-91
2021/06/29 06:33:45;;;;;;;8.07;3.40;;;;;;;;;;4964953;28;20051;-91
2021/06/29 06:36:20;;;;;;;7.32;3.15;;;;;;;;;;4974482;28;20053;-92
2021/06/29 06:39:04;;;;;;;6.00;2.97;;;;;;;;;;4968415;28;20055;-91
2021/06/29 06:41:33;;;;;;;6.40;3.22;;;;;;;;;;4974201;28;20046;-90
2021/06/29 06:44:04;;;;;;;5.00;3.13;;;;;;;;;;5010374;28;20058;-92
2021/06/29 06:52:51;;;;;;;5.53;3.17;;;;;;;;;;4998811;28;20047;-91
2021/06/29 06:55:34;;;;;;;7.00;3.15;;;;;;;;;;5013578;28;20231;-90
2021/06/29 06:58:03;;;;;;;4.47;2.58;;;;;;;;;;5015629;28;20061;-90
2021/06/29 07:03:28;;;;;;;5.82;3.15;;;;;;;;;;5002247;28;20085;-90
2021/06/29 07:06:13;;;;;;;3.25;2.63;;;;;;;;;;5008127;28;20049;-90
2021/06/29 07:12:02;;;;;;;6.50;2.80;;;;;;;;;;4992442;28;20107;-91
2021/06/29 07:18:23;;;;;;;4.43;2.83;;;;;;;;;;5012793;28;20517;-93
2021/06/29 07:20:57;;;;;;;3.42;2.95;;;;;;;;;;4989185;28;20050;-93
2021/06/29 07:23:54;;;;;;;4.25;2.75;;;;;;;;;;5000103;28;20069;-90
2021/06/29 07:26:25;;;;;;;4.43;3.10;;;;;;;;;;5008075;28;20114;-89
2021/06/29 07:28:54;;;;;;;3.10;2.47;;;;;;;;;;5010816;28;20298;-89
2021/06/29 07:31:24;;;;;;;5.97;2.78;;;;;;;;;;5014632;28;20062;-91
2021/06/29 07:37:03;;;;;;;5.43;2.22;;;;;;;;;;5008061;28;20054;-91
2021/06/29 07:39:43;;;;;;;4.80;2.55;;;;;;;;;;5004061;28;20086;-91
2021/06/29 07:42:15;;;;;;;5.40;2.30;;;;;;;;;;5007739;28;20064;-91
2021/06/29 07:54:17;;;;;;;3.70;2.55;;;;;;;;;;5001393;28;20057;-91
2021/06/29 07:56:50;;;;;;;3.78;2.30;;;;;;;;;;5002553;28;20137;-90
2021/06/29 07:59:24;;;;;;;2.15;1.83;;;;;;;;;;5005707;28;20058;-91
2021/06/29 08:05:39;;;;;;;3.20;2.20;;;;;;;;;;4991021;28;20128;-89
2021/06/29 08:08:22;;;;;;;3.42;1.98;;;;;;;;;;4981502;28;20050;-90
2021/06/29 08:10:51;;;;;;;3.90;2.00;;;;;;;;;;5010838;28;20050;-90
2021/06/29 08:13:37;;;;;;;2.45;1.92;;;;;;;;;;5013189;28;20481;-89
2021/06/29 08:16:07;;;;;;;4.20;2.15;;;;;;;;;;4996838;28;20054;-91
2021/06/29 08:18:40;;;;;;;2.67;2.10;;;;;;;;;;5007031;28;20082;-88
2021/06/29 08:21:10;;;;;;;3.08;1.50;;;;;;;;;;5001821;28;20173;-90
2021/06/29 08:23:39;;;;;;;3.63;1.83;;;;;;;;;;5007559;28;20057;-89
2021/06/29 08:26:10;;;;;;;11.18;2.85;;;;;;;;;;5018705;28;20053;-90
2021/06/29 08:28:44;;;;;;;10.02;2.15;;;;;;;;;;5012817;28;20061;-90
2021/06/29 08:31:19;;;;;;;3.33;1.83;;;;;;;;;;5013738;28;20068;-90
2021/06/29 08:33:48;;;;;;;3.22;1.75;;;;;;;;;;4990852;28;20106;-90
2021/06/29 08:36:18;;;;;;;3.63;1.88;;;;;;;;;;5025547;28;20061;-90
2021/06/29 08:38:54;;;;;;;5.72;2.15;;;;;;;;;;5001501;28;20041;-89
2021/06/29 08:41:24;;;;;;;3.60;1.90;;;;;;;;;;5022576;28;20089;-90
2021/06/29 08:43:55;;;;;;;2.25;1.90;;;;;;;;;;4990992;28;20057;-90
2021/06/29 08:46:40;;;;;;;5.00;1.93;;;;;;;;;;5008212;28;20054;-91
2021/06/29 08:49:12;;;;;;;2.15;1.60;;;;;;;;;;4987221;28;20122;-92
2021/06/29 08:55:18;;;;;;;2.67;2.13;;;;;;;;;;5007410;28;20059;-93
2021/06/29 08:57:50;;;;;;;22.58;1.95;;;;;;;;;;5002668;28;20058;-91
2021/06/29 09:00:24;;;;;;;2.15;1.77;;;;;;;;;;5021877;28;20054;-92
2021/06/29 09:03:16;;;;;;;1.88;1.58;;;;;;;;;;4988882;28;20124;-91
2021/06/29 09:09:04;;;;;;;4.55;1.60;;;;;;;;;;4982028;28;20061;-91
2021/06/29 09:11:56;;;;;;;3.72;1.55;;;;;;;;;;4964502;28;20054;-91
2021/06/29 09:14:42;;;;;;;3.88;1.70;;;;;;;;;;4955171;28;20054;-91
2021/06/29 09:17:39;;;;;;;1.50;1.40;;;;;;;;;;4960820;28;20069;-92
2021/06/29 09:20:26;;;;;;;1.20;1.00;;;;;;;;;;4978786;28;20054;-91
2021/06/29 09:22:57;;;;;;;2.58;1.75;;;;;;;;;;4987783;28;20054;-91
2021/06/29 09:25:28;;;;;;;3.00;1.42;;;;;;;;;;4961008;28;20086;-90
2021/06/29 09:27:58;;;;;;;3.40;1.48;;;;;;;;;;4978571;28;20046;-89
2021/06/29 09:30:29;;;;;;;4.53;1.50;;;;;;;;;;4975116;28;20406;-91
2021/06/29 09:33:02;;;;;;;3.50;1.40;;;;;;;;;;4992609;28;20133;-90
2021/06/29 09:35:32;;;;;;;4.50;1.50;;;;;;;;;;5002057;28;20487;-93
2021/06/29 09:40:47;;;;;;;1.65;1.33;;;;;;;;;;5002773;28;20081;-91
2021/06/29 09:46:37;;;;;;;2.80;1.25;;;;;;;;;;5012068;28;20046;-90
2021/06/29 09:49:14;;;;;;;2.38;1.27;;;;;;;;;;5012973;28;20080;-90
2021/06/29 09:52:04;;;;;;;3.17;1.77;;;;;;;;;;5004805;28;20088;-89
2021/06/29 09:54:36;;;;;;;2.28;1.52;;;;;;;;;;4993067;28;20046;-90
2021/06/29 10:00:14;;;;;;;1.67;1.30;;;;;;;;;;5007274;28;20058;-90
2021/06/29 10:02:43;;;;;;;4.55;1.30;;;;;;;;;;4999231;28;20055;-89
2021/06/29 10:05:24;;;;;;;2.38;1.20;;;;;;;;;;4993966;28;20054;-89
2021/06/29 10:07:53;;;;;;;1.73;0.95;;;;;;;;;;5008590;28;20065;-90
2021/06/29 10:10:23;;;;;;;1.92;1.00;;;;;;;;;;4994545;28;20050;-90
2021/06/29 10:12:52;;;;;;;2.47;1.00;;;;;;;;;;5001113;28;20046;-90
2021/06/29 10:15:22;;;;;;;2.17;1.00;;;;;;;;;;4995378;28;20105;-90
2021/06/29 10:20:57;;;;;;;4.50;1.05;;;;;;;;;;5003167;28;20047;-92
2021/06/29 10:23:31;;;;;;;1.33;1.00;;;;;;;;;;5016513;28;20065;-93
2021/06/29 10:26:13;;;;;;;1.88;1.10;;;;;;;;;;4994416;28;20046;-90
2021/06/29 10:28:48;;;;;;;2.50;1.20;;;;;;;;;;5007561;28;20532;-91
2021/06/29 10:31:21;;;;;;;1.65;1.05;;;;;;;;;;5014151;28;20081;-91
2021/06/29 10:33:52;;;;;;;2.33;1.10;;;;;;;;;;5001681;28;20058;-91
2021/06/29 10:36:24;;;;;;;1.33;0.95;;;;;;;;;;5000671;28;20042;-95
2021/06/29 10:38:56;;;;;;;3.17;1.10;;;;;;;;;;4987820;28;20054;-90
2021/06/29 10:41:26;;;;;;;2.45;1.05;;;;;;;;;;5013471;28;20066;-91
2021/06/29 10:44:10;;;;;;;2.15;1.08;;;;;;;;;;4999485;28;20398;-90
2021/06/29 10:46:43;;;;;;;1.60;1.35;;;;;;;;;;5005392;28;20061;-90
2021/06/29 10:49:31;;;;;;;1.67;1.48;;;;;;;;;;4994284;28;20511;-91
2021/06/29 10:52:03;;;;;;;3.90;1.20;;;;;;;;;;5008952;28;20074;-90
2021/06/29 10:54:39;;;;;;;2.53;1.60;;;;;;;;;;5013446;28;20099;-91
2021/06/29 10:57:12;;;;;;;1.48;1.20;;;;;;;;;;4998633;28;20061;-91
2021/06/29 10:59:58;;;;;;;1.42;1.25;;;;;;;;;;5001932;28;20050;-90
2021/06/29 11:02:31;;;;;;;4.00;1.63;;;;;;;;;;5009394;28;20064;-91
2021/06/29 11:05:04;;;;;;;2.35;1.30;;;;;;;;;;4997040;28;20137;-90
2021/06/29 11:07:43;;;;;;;2.17;1.08;;;;;;;;;;5000392;28;20045;-90
2021/06/29 11:10:27;;;;;;;3.05;1.20;;;;;;;;;;5004397;28;20456;-89
2021/06/29 11:13:02;;;;;;;4.40;1.38;;;;;;;;;;5014758;28;20054;-91
2021/06/29 11:15:50;;;;;;;3.05;1.55;;;;;;;;;;5019852;28;20500;-90
2021/06/29 11:18:21;;;;;;;1.55;1.10;;;;;;;;;;5015658;28;20069;-91
2021/06/29 11:27:41;;;;;;;3.40;1.20;;;;;;;;;;5002984;28;20599;-93
2021/06/29 11:30:12;;;;;;;4.75;1.40;;;;;;;;;;5005645;28;20070;-91
2021/06/29 11:33:15;;;;;;;1.70;1.30;;;;;;;;;;5001276;28;20418;-91
2021/06/29 11:35:44;;;;;;;2.28;1.40;;;;;;;;;;5008577;28;20500;-91
2021/06/29 11:44:38;;;;;;;2.03;1.20;;;;;;;;;;5000291;28;20045;-91
2021/06/29 11:47:26;;;;;;;4.85;1.35;;;;;;;;;;4997551;28;20054;-92
2021/06/29 11:49:59;;;;;;;1.50;1.10;;;;;;;;;;5000397;28;20042;-91
2021/06/29 11:55:53;;;;;;;4.18;1.25;;;;;;;;;;5005745;28;20061;-93
2021/06/29 11:58:33;;;;;;;3.25;1.73;;;;;;;;;;5001086;28;20046;-92
2021/06/29 12:01:21;;;;;;;1.77;1.27;;;;;;;;;;4996561;28;20447;-92
2021/06/29 12:04:09;;;;;;;1.50;1.20;;;;;;;;;;5001877;28;20050;-91
2021/06/29 12:07:04;;;;;;;1.35;1.00;;;;;;;;;;5003211;28;20054;-91
2021/06/29 12:09:38;;;;;;;1.40;1.05;;;;;;;;;;5006928;28;20542;-91
2021/06/29 12:15:14;;;;;;;1.30;1.10;;;;;;;;;;5036347;28;20069;-90
2021/06/29 12:18:54;;;;;;;1.52;1.17;;;;;;;;;;5046418;28;20126;-91
2021/06/29 12:28:24;;;;;;;1.40;1.10;;;;;;;;;;4971234;28;20077;-91
2021/06/29 12:34:24;;;;;;;1.92;0.98;;;;;;;;;;4963723;28;20089;-92
2021/06/29 12:43:51;;;;;;;1.10;1.00;;;;;;;;;;4984916;28;20139;-92
2021/06/29 12:46:48;;;;;;;1.92;1.30;;;;;;;;;;4955959;28;20046;-91
2021/06/29 12:49:27;;;;;;;3.17;1.65;;;;;;;;;;4988271;28;20064;-94
2021/06/29 12:51:56;;;;;;;;;;;;;;;;;;4993685;28;20062;-92
2021/06/29 12:54:34;;;;;;;1.65;1.10;;;;;;;;;;4996668;28;20417;-92
2021/06/29 12:57:05;;;;;;;1.38;0.93;;;;;;;;;;4989303;28;20105;-92
2021/06/29 12:59:41;;;;;;;3.20;1.00;;;;;;;;;;4990530;28;20150;-94
2021/06/29 13:02:12;;;;;;;2.25;0.90;;;;;;;;;;4996226;28;20104;-94
2021/06/29 13:04:46;;;;;;;1.27;1.13;;;;;;;;;;4999956;28;20104;-91
2021/06/29 13:10:52;;;;;;;1.60;1.20;;;;;;;;;;5018192;28;20046;-92
2021/06/29 13:14:15;;;;;;;1.30;1.20;;;;;;;;;;5002850;28;20058;-95
2021/06/29 13:20:56;;;;;;;1.67;1.25;;;;;;;;;;5028122;28;20061;-94
2021/06/29 13:23:27;;;;;;;2.95;1.23;;;;;;;;;;5024406;28;20057;-94
2021/06/29 13:26:17;;;;;;;1.60;1.20;;;;;;;;;;5022299;28;20045;-95
2021/06/29 13:29:21;;;;;;;2.05;1.48;;;;;;;;;;5022783;28;20053;-94
2021/06/29 13:42:21;;;;;;;1.73;1.30;;;;;;;;;;4937421;29;20117;-95
2021/06/29 13:45:03;;;;;;;2.83;1.30;;;;;;;;;;4986920;22;20106;-63
2021/06/29 13:47:32;;;;;;;3.15;1.42;;;;;;;;;;5032218;28;20129;-63
2021/06/29 13:50:02;;;;;;;3.30;1.85;;;;;;;;;;5031487;28;20049;-63
2021/06/29 13:52:30;;;;;;;2.15;1.50;;;;;;;;;;5031956;28;20083;-63
2021/06/29 13:55:10;;;;;;;1.63;1.33;;;;;;;;;;5029359;28;20045;-63
2021/06/29 13:57:40;;;;;;;1.77;1.38;;;;;;;;;;5023748;28;20038;-63
2021/06/29 14:00:23;;;;;;;2.42;1.48;;;;;;;;;;5028500;28;20389;-63
2021/06/29 14:03:06;;;;;;;2.45;1.45;;;;;;;;;;5028656;28;20107;-63
2021/06/29 14:05:38;;;;;;;2.78;1.35;;;;;;;;;;5032751;28;20058;-63
2021/06/29 14:08:18;;;;;;;2.45;1.38;;;;;;;;;;5027026;28;20136;-63
2021/06/29 14:10:49;;;;;;;2.28;1.40;;;;;;;;;;5030607;28;20423;-63
2021/06/29 14:13:32;;;;;;;2.30;1.48;;;;;;;;;;5033701;28;20053;-63
2021/06/29 14:16:01;;;;;;;5.93;1.92;;;;;;;;;;5027582;28;20104;-63
2021/06/29 14:18:32;;;;;;;1.35;1.25;;;;;;;;;;5030194;28;20586;-64
2021/06/29 14:21:05;;;;;;;1.42;1.33;;;;;;;;;;5020867;28;20052;-63
2021/06/29 14:23:33;;;;;;;1.88;1.60;;;;;;;;;;5028539;28;20041;-63
2021/06/29 14:26:02;;;;;;;2.22;1.38;;;;;;;;;;5029263;28;20049;-63
2021/06/29 14:28:33;;;;;;;2.10;1.70;;;;;;;;;;5031577;28;20049;-64
2021/06/29 14:31:02;;;;;;;2.38;1.38;;;;;;;;;;5030092;28;20049;-63
2021/06/29 14:33:31;;;;;;;1.67;1.15;;;;;;;;;;5030754;28;20061;-64
2021/06/29 14:36:00;;;;;;;3.80;1.30;;;;;;;;;;5025582;28;20053;-64
2021/06/29 14:38:28;;;;;;;2.55;1.55;;;;;;;;;;5030542;28;20437;-63
2021/06/29 14:40:57;;;;;;;3.35;1.70;;;;;;;;;;5035455;28;20579;-64
2021/06/29 14:43:26;;;;;;;3.13;1.30;;;;;;;;;;5028170;28;20493;-64
2021/06/29 14:45:58;;;;;;;2.85;1.40;;;;;;;;;;5029126;28;20068;-64
2021/06/29 14:48:27;;;;;;;1.60;1.33;;;;;;;;;;5028222;28;20587;-64
2021/06/29 14:51:00;;;;;;;3.15;1.60;;;;;;;;;;5030317;28;20041;-64
2021/06/29 14:53:29;;;;;;;2.53;1.60;;;;;;;;;;5033800;28;20058;-64
2021/06/29 14:55:58;;;;;;;3.20;1.55;;;;;;;;;;5043742;28;20049;-64
2021/06/29 14:58:26;;;;;;;1.80;1.45;;;;;;;;;;5031195;28;20124;-64
2021/06/29 15:00:56;;;;;;;5.68;1.85;;;;;;;;;;5029800;28;20049;-64
2021/06/29 15:03:28;;;;;;;8.13;1.10;;;;;;;;;;5031262;28;20060;-63
2021/06/29 15:05:56;;;;;;;10.10;1.30;;;;;;;;;;5031459;28;20136;-63
2021/06/29 15:08:24;;;;;;;8.95;1.85;;;;;;;;;;5027133;28;20045;-63
2021/06/29 15:10:53;;;;;;;9.20;1.23;;;;;;;;;;5028866;28;20141;-64
2021/06/29 15:13:21;;;;;;;10.93;2.03;;;;;;;;;;5029575;28;20088;-66
2021/06/29 15:15:50;;;;;;;9.82;1.60;;;;;;;;;;5025316;28;20383;-63
2021/06/29 15:18:20;;;;;;;6.65;1.02;;;;;;;;;;5031163;28;20131;-65
2021/06/29 15:20:52;;;;;;;4.93;1.13;;;;;;;;;;5025930;28;20081;-65
2021/06/29 15:23:24;;;;;;;1.90;0.88;;;;;;;;;;5031948;28;20103;-64
2021/06/29 15:25:54;;;;;;;1.48;0.60;;;;;;;;;;5029689;28;20049;-65
2021/06/29 15:28:22;;;;;;;4.15;0.70;;;;;;;;;;5029987;28;20050;-65
2021/06/29 15:30:51;;;;;;;2.55;0.93;;;;;;;;;;5030606;28;20072;-65
2021/06/29 15:33:22;;;;;;;2.47;1.10;;;;;;;;;;5030810;28;20160;-64
2021/06/29 15:35:51;;;;;;;2.35;0.90;;;;;;;;;;5025534;28;20041;-64
2021/06/29 15:38:19;;;;;;;5.28;1.27;;;;;;;;;;5011261;28;20050;-65
2021/06/29 15:40:50;;;;;;;5.13;1.08;;;;;;;;;;5025758;28;20045;-65
2021/06/29 15:43:20;;;;;;;2.45;0.80;;;;;;;;;;5010774;28;20046;-64
2021/06/29 15:45:49;;;;;;;3.80;0.80;;;;;;;;;;5021834;28;20484;-64
2021/06/29 15:48:17;;;;;;;2.75;0.77;;;;;;;;;;5028199;28;20057;-64
2021/06/29 15:50:47;;;;;;;1.73;0.65;;;;;;;;;;5029649;28;20120;-64
2021/06/29 15:53:16;;;;;;;3.97;0.65;;;;;;;;;;5029211;28;20049;-64
2021/06/29 15:55:44;;;;;;;2.38;0.90;;;;;;;;;;5043492;28;20080;-64
2021/06/29 15:58:14;;;;;;;1.90;0.63;;;;;;;;;;5027344;28;20151;-64
2021/06/29 16:00:42;;;;;;;2.65;1.02;;;;;;;;;;5028511;28;20477;-64
2021/06/29 16:03:12;;;;;;;3.72;1.00;;;;;;;;;;5028153;28;20327;-64
2021/06/29 16:05:41;;;;;;;1.48;0.70;;;;;;;;;;5027021;28;20630;-64
2021/06/29 16:08:12;;;;;;;4.10;1.20;;;;;;;;;;5024066;28;20158;-64
2021/06/29 16:10:40;;;;;;;6.43;1.00;;;;;;;;;;5026132;28;20111;-63
2021/06/29 16:13:08;;;;;;;2.75;0.95;;;;;;;;;;5021163;28;20936;-64
2021/06/29 16:15:37;;;;;;;2.08;0.90;;;;;;;;;;5024680;28;20041;-64
2021/06/29 16:18:05;;;;;;;3.70;1.10;;;;;;;;;;5028142;28;20053;-64
2021/06/29 16:20:34;;;;;;;4.07;1.15;;;;;;;;;;5025797;28;20053;-63
2021/06/29 16:23:02;;;;;;;4.97;1.00;;;;;;;;;;5025724;28;20065;-64
2021/06/29 16:25:32;;;;;;;2.03;0.80;;;;;;;;;;5021702;28;20557;-64
2021/06/29 16:28:00;;;;;;;2.80;0.80;;;;;;;;;;5020358;28;20576;-64
2021/06/29 16:30:29;;;;;;;3.92;1.20;;;;;;;;;;5021419;28;20474;-64
2021/06/29 16:32:57;;;;;;;6.07;1.40;;;;;;;;;;5023909;28;20136;-64
2021/06/29 16:35:25;;;;;;;2.78;1.13;;;;;;;;;;5024417;28;20128;-64
2021/06/29 16:37:55;;;;;;;4.38;0.90;;;;;;;;;;5024985;28;20153;-64
2021/06/29 16:40:23;;;;;;;4.45;0.95;;;;;;;;;;5027250;28;20041;-65
2021/06/29 16:42:53;;;;;;;5.68;1.13;;;;;;;;;;5023530;28;20132;-65
2021/06/29 16:45:21;;;;;;;3.28;1.20;;;;;;;;;;5024724;28;20053;-65
2021/06/29 16:47:49;;;;;;;1.48;0.90;;;;;;;;;;5021887;28;20143;-65
2021/06/29 16:50:18;;;;;;;3.38;1.30;;;;;;;;;;5024350;28;20510;-64
2021/06/29 16:52:46;;;;;;;1.75;1.00;;;;;;;;;;5023967;28;20148;-64
2021/06/29 16:55:14;;;;;;;2.83;1.30;;;;;;;;;;5025836;28;20049;-64
2021/06/29 16:57:43;;;;;;;3.95;1.00;;;;;;;;;;5024965;28;20055;-64
2021/06/29 17:00:13;;;;;;;3.03;1.20;;;;;;;;;;5025112;28;20726;-64
2021/06/29 17:02:42;;;;;;;6.70;1.40;;;;;;;;;;5025893;28;20132;-63
2021/06/29 17:05:10;;;;;;;2.75;1.30;;;;;;;;;;5024865;28;20088;-64
2021/06/29 17:07:39;;;;;;;5.43;1.48;;;;;;;;;;5023439;28;20092;-64
2021/06/29 17:10:08;;;;;;;1.77;1.10;;;;;;;;;;5025416;28;20151;-64
2021/06/29 17:12:36;;;;;;;3.72;1.27;;;;;;;;;;5025299;28;20085;-66
2021/06/29 17:15:05;;;;;;;3.38;1.48;;;;;;;;;;5022985;28;20041;-66
2021/06/29 17:17:35;;;;;;;2.13;1.10;;;;;;;;;;5023851;28;20145;-65
2021/06/29 17:20:05;;;;;;;2.47;1.10;;;;;;;;;;5024567;28;20045;-65
2021/06/29 17:22:33;;;;;;;3.47;1.45;;;;;;;;;;5014346;28;20596;-65
2021/06/29 17:25:02;;;;;;;3.50;1.15;;;;;;;;;;5014168;28;20073;-65
2021/06/29 17:27:30;;;;;;;1.83;1.00;;;;;;;;;;5023242;28;20060;-65
2021/06/29 17:29:59;;;;;;;1.02;0.80;;;;;;;;;;5024356;28;20132;-67
2021/06/29 17:32:30;;;;;;;4.38;1.40;;;;;;;;;;5025371;28;20050;-65
2021/06/29 17:34:59;;;;;;;2.90;0.80;;;;;;;;;;5023011;28;20050;-64
2021/06/29 17:37:28;;;;;;;2.80;1.20;;;;;;;;;;5023743;28;20057;-65
2021/06/29 17:39:56;;;;;;;4.18;1.20;;;;;;;;;;5025156;28;20049;-65
2021/06/29 17:42:25;;;;;;;3.85;1.23;;;;;;;;;;5024109;28;20128;-64
2021/06/29 17:44:53;;;;;;;3.63;1.17;;;;;;;;;;5021716;28;20125;-65
2021/06/29 17:47:22;;;;;;;2.17;1.45;;;;;;;;;;5021612;28;20134;-65
2021/06/29 17:49:51;;;;;;;2.90;1.30;;;;;;;;;;5021512;28;20521;-65